Terminal Aerodrome Forecast
Issued by NWS

Home | Current Version | Previous Version | Text Only | Print | Product List | Glossary On
Versions: 1 2 3 4 5 6 7 8 9 10 11 12 13 14 15 16
000
FTUS43 KTOP 181720
TAFFOE
TAF
KFOE 181720Z 1818/1918 21014KT P6SM FEW250
     FM182300 19009KT P6SM FEW250
     FM191500 20013G19KT P6SM FEW250=

USA.gov is the U.S. government's official web portal to all federal, state and local government web resources and services.